Cordele, Georgia
Current Conditions -  °F | °C
As of 12:15 PM on Thursday 23 Oct 2014 (Local Time) from KCKF Reporting Station
Clear Clear  
Wind Chill: 65°   Ceiling: Unl
Heat Index: 65°   Visibility: 10mi
Dew Point: 43°   Wind: 0mph
Humidity: 45%   Direction: NA
Pressure: 30.12"   Gusts: NA
Location:  31.97°N, 83.78°W
Report Text: KCKF 231615Z AUTO 00000KT 10SM CLR 18/06 A3012 RMK AO2 T01830063
Loading
Personal Weather Stations






























Interactive Weather Map
Tropical Storm Tracking
New forecast layout! Learn more

10-Day Weather Forecast

Advertisements
Track Severe Weather on mobile